createdAt,value
2023-04-24T00:02:49.575Z,10.26
2023-04-24T00:07:53.677Z,10.29
2023-04-24T00:12:55.195Z,10.31
2023-04-24T00:17:56.715Z,10.33
2023-04-24T00:22:58.268Z,10.32
2023-04-24T00:27:59.721Z,10.30
2023-04-24T00:33:01.232Z,10.20
2023-04-24T00:38:02.758Z,10.18
2023-04-24T00:43:04.550Z,10.13
2023-04-24T00:48:06.546Z,9.99
2023-04-24T00:53:08.050Z,10.01
2023-04-24T00:58:09.651Z,9.96
2023-04-24T01:03:12.110Z,9.91
2023-04-24T01:08:15.036Z,9.90
2023-04-24T01:13:16.569Z,9.88
2023-04-24T01:18:18.068Z,9.85
2023-04-24T01:23:19.995Z,9.88
2023-04-24T01:28:22.185Z,9.81
2023-04-24T01:33:24.114Z,9.72
2023-04-24T01:38:25.924Z,9.73
2023-04-24T01:43:27.662Z,9.60
2023-04-24T01:48:29.321Z,9.65
2023-04-24T01:53:30.860Z,9.72
2023-04-24T01:58:32.813Z,9.71
2023-04-24T02:03:34.538Z,9.51
2023-04-24T02:08:36.413Z,9.62
2023-04-24T02:13:37.996Z,9.65
2023-04-24T02:18:39.565Z,9.63
2023-04-24T02:23:41.129Z,9.63
2023-04-24T02:28:42.592Z,9.63
2023-04-24T02:33:44.104Z,9.66
2023-04-24T02:38:45.666Z,9.63
2023-04-24T02:43:47.208Z,9.65
2023-04-24T02:48:48.677Z,9.63
2023-04-24T02:53:50.244Z,9.63
2023-04-24T02:58:51.866Z,9.56
2023-04-24T03:03:53.620Z,9.56
2023-04-24T03:08:55.590Z,9.56
2023-04-24T03:13:57.159Z,9.51
2023-04-24T03:18:58.623Z,9.51
2023-04-24T03:24:00.187Z,9.45
2023-04-24T03:29:02.744Z,9.45
2023-04-24T03:34:04.348Z,9.40
2023-04-24T03:39:06.373Z,9.42
2023-04-24T03:44:07.921Z,9.41
2023-04-24T03:49:09.442Z,9.37
2023-04-24T03:54:11.340Z,9.36
2023-04-24T03:59:12.889Z,9.36
2023-04-24T04:04:14.420Z,9.37
2023-04-24T04:09:16.404Z,9.39
2023-04-24T04:14:17.940Z,9.42
2023-04-24T04:19:19.418Z,9.29
2023-04-24T04:24:25.057Z,9.27
2023-04-24T04:29:26.982Z,9.26
2023-04-24T04:34:28.523Z,9.26
2023-04-24T04:39:31.511Z,9.31
2023-04-24T04:44:33.104Z,9.25
2023-04-24T04:49:35.610Z,9.27
2023-04-24T04:54:37.137Z,9.24
2023-04-24T04:59:38.667Z,9.24
2023-04-24T05:04:41.053Z,9.24
2023-04-24T05:09:42.907Z,9.25
2023-04-24T05:14:44.521Z,9.20
2023-04-24T05:19:46.369Z,9.14
2023-04-24T05:24:48.984Z,9.09
2023-04-24T05:29:50.703Z,9.10
2023-04-24T05:34:52.258Z,9.01
2023-04-24T05:39:53.773Z,9.01
2023-04-24T05:44:57.861Z,8.97
2023-04-24T05:49:59.506Z,8.77
2023-04-24T05:55:01.016Z,8.60
2023-04-24T06:00:02.633Z,8.53
2023-04-24T06:05:05.811Z,8.31
2023-04-24T06:10:08.003Z,8.32
2023-04-24T06:15:09.939Z,8.30
2023-04-24T06:20:12.439Z,8.34
2023-04-24T06:25:14.076Z,8.39
2023-04-24T06:30:15.726Z,8.25
2023-04-24T06:35:17.426Z,8.26
2023-04-24T06:40:19.760Z,8.30
2023-04-24T06:45:21.234Z,8.28
2023-04-24T06:50:22.861Z,8.29
2023-04-24T06:55:24.388Z,8.24
2023-04-24T07:00:26.235Z,8.19
2023-04-24T07:05:27.840Z,8.25
2023-04-24T07:10:29.573Z,8.30
2023-04-24T07:15:31.448Z,8.35
2023-04-24T07:20:34.159Z,8.33
2023-04-24T07:25:35.763Z,8.35
2023-04-24T07:30:37.270Z,8.35
2023-04-24T07:35:39.061Z,8.25
2023-04-24T07:40:40.588Z,8.41
2023-04-24T07:45:42.134Z,8.53
2023-04-24T07:50:43.643Z,8.63
2023-04-24T07:55:45.108Z,8.80
2023-04-24T08:00:48.270Z,8.79
2023-04-24T08:05:52.011Z,8.75
2023-04-24T08:10:53.520Z,8.60
2023-04-24T08:15:55.094Z,8.52
2023-04-24T08:20:57.154Z,8.46
2023-04-24T08:25:58.802Z,8.25
2023-04-24T08:31:00.411Z,8.17
2023-04-24T08:36:03.802Z,8.15
2023-04-24T08:41:06.019Z,8.36
2023-04-24T08:46:11.568Z,8.67
2023-04-24T08:51:13.745Z,8.88
2023-04-24T08:56:15.338Z,8.82
2023-04-24T09:01:17.294Z,8.72
2023-04-24T09:06:19.972Z,8.94
2023-04-24T09:11:21.632Z,9.03
2023-04-24T09:16:25.287Z,9.21
2023-04-24T09:21:33.433Z,9.35
2023-04-24T09:26:37.958Z,9.47
2023-04-24T09:31:39.481Z,9.31
2023-04-24T09:36:43.808Z,9.20
2023-04-24T09:41:47.917Z,9.25
2023-04-24T09:47:01.577Z,9.22
2023-04-24T09:52:10.980Z,9.16
2023-04-24T09:57:12.480Z,9.22
2023-04-24T10:02:21.055Z,9.32
2023-04-24T10:07:22.615Z,9.41
2023-04-24T10:12:24.447Z,9.42
2023-04-24T10:17:27.003Z,9.21
2023-04-24T10:22:30.846Z,8.88
2023-04-24T10:27:32.975Z,8.68
2023-04-24T10:32:34.508Z,8.87
2023-04-24T10:37:41.954Z,8.87
2023-04-24T10:42:43.741Z,8.63
2023-04-24T10:47:53.271Z,8.27
2023-04-24T10:53:05.550Z,8.12
2023-04-24T10:58:07.074Z,8.33
2023-04-24T11:03:34.277Z,8.96
2023-04-24T11:08:46.664Z,9.37
2023-04-24T11:13:57.508Z,9.05
2023-04-24T11:19:20.359Z,8.93
2023-04-24T11:24:31.972Z,9.44
2023-04-24T11:29:44.363Z,9.93
2023-04-24T11:34:54.687Z,10.29
2023-04-24T11:39:58.306Z,10.32
2023-04-24T11:45:01.416Z,10.10
2023-04-24T11:50:04.896Z,9.59
2023-04-24T11:55:09.956Z,9.02
2023-04-24T12:00:18.296Z,8.95
2023-04-24T12:05:31.865Z,9.12
2023-04-24T12:10:34.399Z,9.46
2023-04-24T12:15:35.991Z,9.51
2023-04-24T12:20:37.470Z,9.07
2023-04-24T12:25:39.796Z,8.84
2023-04-24T12:30:49.304Z,9.23
2023-04-24T12:35:56.486Z,9.49
2023-04-24T12:41:06.258Z,9.44
2023-04-24T12:46:07.814Z,9.58
2023-04-24T12:51:09.297Z,9.70
2023-04-24T12:56:10.881Z,9.77
2023-04-24T13:01:12.496Z,9.81
2023-04-24T13:06:14.045Z,9.62
2023-04-24T13:11:15.788Z,9.24
2023-04-24T13:16:17.353Z,8.97
2023-04-24T13:21:18.938Z,8.95
2023-04-24T13:26:20.859Z,8.95
2023-04-24T13:31:22.463Z,9.27
2023-04-24T13:36:24.103Z,9.63
2023-04-24T13:41:25.770Z,9.49
2023-04-24T13:46:27.382Z,9.45
2023-04-24T13:51:29.120Z,9.30
2023-04-24T13:56:30.587Z,9.15
2023-04-24T14:01:32.337Z,9.26
2023-04-24T14:06:34.318Z,9.37
2023-04-24T14:11:36.239Z,9.82
2023-04-24T14:16:38.027Z,9.86
2023-04-24T14:21:39.683Z,9.84
2023-04-24T14:26:41.243Z,9.82
2023-04-24T14:31:43.372Z,9.88
2023-04-24T14:36:44.933Z,9.86
2023-04-24T14:41:46.665Z,9.80
2023-04-24T14:46:49.770Z,9.78
2023-04-24T14:51:51.347Z,9.67
2023-04-24T14:56:52.869Z,9.70
2023-04-24T15:02:14.608Z,9.66
2023-04-24T15:07:16.935Z,9.52
2023-04-24T15:12:18.452Z,9.44
2023-04-24T15:17:19.939Z,9.22
2023-04-24T15:22:21.541Z,9.02
2023-04-24T15:27:23.077Z,8.97
2023-04-24T15:32:24.696Z,9.05
2023-04-24T15:37:26.238Z,8.97
2023-04-24T15:42:27.765Z,8.69
2023-04-24T15:47:29.442Z,8.46
2023-04-24T15:52:31.616Z,8.44
2023-04-24T15:57:33.279Z,8.54
2023-04-24T16:02:34.846Z,8.70
2023-04-24T16:07:38.521Z,8.66
2023-04-24T16:12:40.024Z,8.31
2023-04-24T16:17:41.762Z,8.25
2023-04-24T16:22:43.287Z,8.20
2023-04-24T16:27:46.679Z,8.18
2023-04-24T16:32:48.274Z,7.72
2023-04-24T16:37:49.857Z,7.57
2023-04-24T16:42:52.770Z,7.45
2023-04-24T16:47:54.343Z,7.54
2023-04-24T16:52:55.906Z,7.70
2023-04-24T16:57:57.452Z,7.82
2023-04-24T17:02:59.032Z,7.88
2023-04-24T17:08:00.964Z,7.91
2023-04-24T17:13:02.487Z,7.78
2023-04-24T17:18:05.627Z,7.96
2023-04-24T17:23:07.292Z,8.16
2023-04-24T17:28:26.902Z,8.32
2023-04-24T17:33:30.514Z,8.35
2023-04-24T17:38:32.357Z,8.33
2023-04-24T17:43:33.940Z,8.34
2023-04-24T17:48:35.637Z,8.34
2023-04-24T17:53:37.493Z,8.35
2023-04-24T17:58:39.165Z,8.30
2023-04-24T18:03:40.890Z,8.31
2023-04-24T18:08:42.844Z,8.22
2023-04-24T18:13:46.133Z,8.24
2023-04-24T18:18:48.006Z,8.23
2023-04-24T18:23:49.743Z,8.23
2023-04-24T18:28:51.336Z,8.24
2023-04-24T18:33:54.293Z,8.17
2023-04-24T18:38:55.857Z,8.08
2023-04-24T18:43:59.160Z,8.02
2023-04-24T18:49:00.683Z,7.98
2023-04-24T18:54:02.232Z,8.01
2023-04-24T18:59:03.825Z,8.05
2023-04-24T19:04:05.481Z,7.98
2023-04-24T19:09:07.177Z,7.90
2023-04-24T19:14:08.700Z,7.90
2023-04-24T19:19:10.458Z,7.94
2023-04-24T19:24:12.199Z,7.94
2023-04-24T19:29:13.696Z,7.92
2023-04-24T19:34:15.168Z,7.88
2023-04-24T19:39:16.739Z,7.85
2023-04-24T19:44:18.640Z,7.73
2023-04-24T19:49:20.179Z,7.65
2023-04-24T19:54:21.789Z,7.67
2023-04-24T19:59:23.269Z,7.63
2023-04-24T20:04:24.899Z,7.57
2023-04-24T20:09:26.789Z,7.59
2023-04-24T20:14:28.337Z,7.45
2023-04-24T20:19:30.180Z,7.35
2023-04-24T20:24:31.799Z,7.19
2023-04-24T20:29:33.432Z,7.20
2023-04-24T20:34:34.925Z,7.17
2023-04-24T20:39:37.215Z,7.12
2023-04-24T20:44:38.766Z,7.07
2023-04-24T20:49:40.453Z,7.05
2023-04-24T20:54:42.035Z,7.00
2023-04-24T20:59:43.567Z,6.98
2023-04-24T21:04:45.060Z,7.04
2023-04-24T21:09:46.559Z,6.97
2023-04-24T21:14:51.050Z,6.87
2023-04-24T21:19:52.977Z,6.89
2023-04-24T21:24:54.590Z,6.89
2023-04-24T21:29:56.278Z,6.77
2023-04-24T21:34:59.385Z,6.67
2023-04-24T21:40:00.928Z,6.51
2023-04-24T21:45:02.616Z,6.49
2023-04-24T21:50:05.549Z,6.49
2023-04-24T21:55:07.403Z,6.39
2023-04-24T22:00:11.381Z,6.36
2023-04-24T22:05:15.870Z,6.35
2023-04-24T22:10:17.663Z,6.31
2023-04-24T22:15:19.292Z,6.28
2023-04-24T22:20:21.459Z,6.29
2023-04-24T22:25:22.951Z,6.30
2023-04-24T22:30:24.432Z,6.33
2023-04-24T22:35:25.947Z,6.39
2023-04-24T22:40:27.523Z,6.33
2023-04-24T22:45:29.073Z,6.33
2023-04-24T22:50:30.999Z,6.28
2023-04-24T22:55:32.579Z,6.29
2023-04-24T23:00:34.171Z,6.23
2023-04-24T23:05:36.023Z,6.25
2023-04-24T23:10:38.186Z,6.30
2023-04-24T23:15:39.738Z,6.28
2023-04-24T23:20:41.598Z,6.36
2023-04-24T23:25:43.095Z,6.36
2023-04-24T23:30:44.697Z,6.42
2023-04-24T23:35:46.355Z,6.41
2023-04-24T23:40:47.886Z,6.31
2023-04-24T23:45:49.484Z,6.24
2023-04-24T23:50:51.064Z,6.16
2023-04-24T23:55:52.616Z,6.10
